Time;durP1;ratioP1;P1;durP2;ratioP2;P2;SDS_P1;SDS_P2;PMS_P1;PMS_P2;Temp;Humidity;BMP_temperature;BMP_pressure;BME280_temperature;BME280_humidity;BME280_pressure;Samples;Min_cycle;Max_cycle;Signal;HPM_P1;HPM_P2
2022/11/20 00:00:32;;;;;;;27.85;16.95;;;;;;;3.10;100.00;99994.69;4996977;28;20195;-75
2022/11/20 00:02:58;;;;;;;26.92;16.55;;;;;;;3.12;100.00;99989.31;4994611;28;20231;-74
2022/11/20 00:05:25;;;;;;;28.17;17.27;;;;;;;3.09;100.00;99987.59;5001720;28;20199;-75
2022/11/20 00:07:52;;;;;;;26.40;17.33;;;;;;;3.10;100.00;100000.00;5000145;28;20278;-74
2022/11/20 00:10:18;;;;;;;25.77;15.55;;;;;;;3.20;100.00;100005.13;4999231;28;20196;-73
2022/11/20 00:12:45;;;;;;;31.08;18.85;;;;;;;3.26;100.00;99995.22;4999216;28;20215;-74
2022/11/20 00:15:13;;;;;;;27.70;18.10;;;;;;;3.26;100.00;99999.69;4998424;28;20200;-74
2022/11/20 00:17:39;;;;;;;27.70;17.50;;;;;;;3.27;100.00;99999.63;4998379;28;20227;-75
2022/11/20 00:20:07;;;;;;;30.95;17.92;;;;;;;3.27;100.00;99998.75;4998250;28;20207;-72
2022/11/20 00:22:34;;;;;;;31.75;18.70;;;;;;;3.26;100.00;99994.38;4991154;28;20225;-72
2022/11/20 00:25:00;;;;;;;29.90;17.77;;;;;;;3.18;100.00;99994.50;5002662;28;20202;-73
2022/11/20 00:27:27;;;;;;;31.00;19.45;;;;;;;3.20;100.00;99997.16;5018879;28;20222;-74
2022/11/20 00:29:53;;;;;;;31.40;18.83;;;;;;;3.21;100.00;99985.56;5018337;28;20195;-74
2022/11/20 00:32:21;;;;;;;27.73;17.77;;;;;;;3.22;100.00;100001.53;5012100;28;20281;-75
2022/11/20 00:34:48;;;;;;;31.35;18.50;;;;;;;3.23;100.00;99994.41;5005745;28;20231;-72
2022/11/20 00:37:14;;;;;;;26.58;17.05;;;;;;;3.27;100.00;99985.44;5015775;28;20281;-73
2022/11/20 00:39:41;;;;;;;29.70;18.10;;;;;;;3.34;100.00;99982.59;4999753;28;20226;-74
2022/11/20 00:42:07;;;;;;;27.83;16.88;;;;;;;3.31;100.00;99979.16;5004313;28;20648;-73
2022/11/20 00:44:34;;;;;;;33.95;19.85;;;;;;;3.26;100.00;99986.38;5008204;28;20198;-72
2022/11/20 00:47:00;;;;;;;30.45;17.42;;;;;;;3.22;100.00;99982.03;5008719;28;20290;-74
2022/11/20 00:49:28;;;;;;;30.17;18.00;;;;;;;3.28;100.00;99965.94;5008475;28;20215;-74
2022/11/20 00:51:55;;;;;;;29.02;18.80;;;;;;;3.28;100.00;99971.25;5016266;28;20831;-75
2022/11/20 00:54:21;;;;;;;33.75;19.35;;;;;;;3.24;100.00;99974.88;5025584;28;20230;-73
2022/11/20 00:56:48;;;;;;;32.35;19.15;;;;;;;3.26;100.00;99970.41;5018210;28;20205;-74
2022/11/20 00:59:14;;;;;;;33.45;19.50;;;;;;;3.27;100.00;99980.13;5032142;28;20253;-73
2022/11/20 01:01:41;;;;;;;29.60;18.45;;;;;;;3.25;100.00;99992.59;5016179;28;20250;-71
2022/11/20 01:04:08;;;;;;;30.67;18.77;;;;;;;3.10;100.00;99976.06;5017692;28;20235;-72
2022/11/20 01:06:37;;;;;;;31.73;19.35;;;;;;;3.09;100.00;99976.94;5016639;28;20223;-74
2022/11/20 01:09:06;;;;;;;27.00;18.50;;;;;;;3.02;100.00;99974.47;5016579;28;20207;-72
2022/11/20 01:11:35;;;;;;;30.48;17.73;;;;;;;3.09;100.00;99976.09;5021568;28;20222;-71
2022/11/20 01:14:08;;;;;;;29.95;17.95;;;;;;;3.12;100.00;99968.03;5021743;28;20265;-73
2022/11/20 01:16:36;;;;;;;31.67;19.30;;;;;;;3.13;100.00;99964.47;5003476;28;20230;-74
2022/11/20 01:19:10;;;;;;;29.92;18.35;;;;;;;3.13;100.00;99969.78;4999356;28;20227;-73
2022/11/20 01:21:40;;;;;;;27.40;17.33;;;;;;;3.16;100.00;99976.81;4997710;28;20294;-74
2022/11/20 01:24:08;;;;;;;29.80;18.55;;;;;;;3.11;100.00;99975.13;5007914;28;20223;-73
2022/11/20 01:26:37;;;;;;;29.35;17.40;;;;;;;3.09;100.00;99984.06;4998838;28;20262;-75
2022/11/20 01:29:04;;;;;;;30.23;18.40;;;;;;;3.09;100.00;99987.59;4997144;28;20196;-74
2022/11/20 01:31:33;;;;;;;29.38;19.20;;;;;;;3.11;100.00;99985.78;5005502;28;20234;-73
2022/11/20 01:34:02;;;;;;;32.53;18.42;;;;;;;3.10;100.00;99991.16;5005019;28;20225;-73
2022/11/20 01:36:31;;;;;;;28.27;18.05;;;;;;;3.02;100.00;99993.97;5011475;28;20200;-71
2022/11/20 01:39:00;;;;;;;28.85;19.05;;;;;;;2.84;100.00;99987.22;5016240;28;20305;-74
2022/11/20 01:44:18;;;;;;;25.38;16.30;;;;;;;2.57;100.00;99983.34;4965972;28;20217;-73
2022/11/20 01:46:57;;;;;;;26.58;16.70;;;;;;;2.68;100.00;99981.34;4959890;28;20200;-72
2022/11/20 01:49:27;;;;;;;30.42;17.98;;;;;;;2.72;100.00;99975.06;4964480;28;20200;-74
2022/11/20 01:51:58;;;;;;;28.23;18.75;;;;;;;2.64;100.00;99969.00;4962104;28;20627;-74
2022/11/20 01:54:32;;;;;;;28.70;18.23;;;;;;;2.70;100.00;99976.88;4960295;28;20217;-73
2022/11/20 01:57:01;;;;;;;26.77;17.42;;;;;;;2.69;100.00;99976.91;4959188;28;20255;-72
2022/11/20 01:59:30;;;;;;;27.35;16.55;;;;;;;2.63;100.00;99975.25;4952791;29;20224;-72
2022/11/20 02:01:57;;;;;;;27.75;17.35;;;;;;;2.59;100.00;99968.25;4954614;29;20197;-75
2022/11/20 02:04:25;;;;;;;31.15;17.15;;;;;;;2.48;100.00;99976.41;4947515;28;20228;-74
2022/11/20 02:06:59;;;;;;;28.20;17.15;;;;;;;2.48;100.00;99979.06;4954242;29;20239;-73
2022/11/20 02:09:27;;;;;;;28.45;17.25;;;;;;;2.35;100.00;99977.53;4953525;29;20196;-74
2022/11/20 02:11:55;;;;;;;29.23;17.00;;;;;;;2.46;100.00;99964.06;4954421;29;20591;-72
2022/11/20 02:14:21;;;;;;;27.65;17.98;;;;;;;2.60;100.00;99974.41;4953864;29;20228;-73
2022/11/20 02:16:50;;;;;;;27.20;16.83;;;;;;;2.68;100.00;99968.06;4954047;28;20208;-73
2022/11/20 02:19:24;;;;;;;27.67;18.13;;;;;;;2.42;100.00;99973.00;4959284;28;20231;-73
2022/11/20 02:22:01;;;;;;;33.50;18.85;;;;;;;2.48;100.00;99964.91;4990173;28;20191;-73
2022/11/20 02:24:29;;;;;;;30.80;18.45;;;;;;;2.42;100.00;99955.28;4994841;28;20199;-73
2022/11/20 02:27:00;;;;;;;31.42;18.40;;;;;;;2.48;100.00;99964.91;5011091;28;20202;-75
2022/11/20 02:29:28;;;;;;;31.75;18.15;;;;;;;2.43;100.00;99954.38;5013886;28;20230;-73
2022/11/20 02:31:56;;;;;;;27.83;17.15;;;;;;;2.42;100.00;99951.72;5014530;28;20199;-72
2022/11/20 02:34:23;;;;;;;27.95;18.27;;;;;;;2.40;100.00;99945.59;5003783;28;20225;-74
2022/11/20 02:36:52;;;;;;;34.25;19.52;;;;;;;2.52;100.00;99944.47;5003114;28;20202;-74
2022/11/20 02:39:21;;;;;;;29.58;19.02;;;;;;;2.36;100.00;99939.44;4992699;28;20227;-72
2022/11/20 02:41:49;;;;;;;30.63;18.60;;;;;;;2.45;100.00;99949.03;4998310;28;20199;-74
2022/11/20 02:44:16;;;;;;;28.75;17.58;;;;;;;2.46;100.00;99942.78;5004573;28;20233;-73
2022/11/20 02:46:42;;;;;;;28.95;18.40;;;;;;;2.54;100.00;99955.97;5012783;28;20193;-71
2022/11/20 02:49:09;;;;;;;31.05;19.08;;;;;;;2.33;100.00;99954.56;5020232;28;20227;-73
2022/11/20 02:51:35;;;;;;;31.73;20.13;;;;;;;2.30;100.00;99952.84;5009768;28;20201;-73
2022/11/20 02:54:02;;;;;;;28.33;18.40;;;;;;;2.25;100.00;99960.91;5009901;28;20844;-73
2022/11/20 02:56:28;;;;;;;33.83;18.63;;;;;;;2.24;100.00;99963.59;5012878;28;20203;-72
2022/11/20 02:58:56;;;;;;;31.48;17.83;;;;;;;2.22;100.00;99965.41;5004893;28;20321;-72
2022/11/20 03:01:23;;;;;;;30.70;18.08;;;;;;;2.23;100.00;99957.41;5011649;28;20698;-72
2022/11/20 03:03:50;;;;;;;28.88;18.13;;;;;;;2.39;100.00;99954.47;5009658;28;20255;-73
2022/11/20 03:06:17;;;;;;;31.98;19.67;;;;;;;2.53;100.00;99954.19;5011084;28;20208;-73
2022/11/20 03:08:43;;;;;;;31.63;19.63;;;;;;;2.56;100.00;99948.84;5012319;28;20196;-72
2022/11/20 03:11:10;;;;;;;33.33;20.50;;;;;;;2.61;100.00;99950.47;5006609;28;20250;-73
2022/11/20 03:13:37;;;;;;;31.23;19.70;;;;;;;2.60;100.00;99939.84;5009981;28;20253;-73
2022/11/20 03:16:12;;;;;;;32.22;19.95;;;;;;;2.63;100.00;99930.06;5013827;28;20263;-74
2022/11/20 03:18:40;;;;;;;31.10;18.63;;;;;;;2.70;100.00;99944.97;4996579;28;20690;-73
2022/11/20 03:21:07;;;;;;;31.83;19.75;;;;;;;2.76;100.00;99948.41;5006508;28;20205;-74
2022/11/20 03:23:34;;;;;;;32.78;18.90;;;;;;;2.70;100.00;99958.25;4996756;28;20783;-74
2022/11/20 03:26:13;;;;;;;31.02;19.05;;;;;;;2.67;100.00;99949.50;5010713;28;20218;-74
2022/11/20 03:28:39;;;;;;;30.17;17.45;;;;;;;2.67;100.00;99958.34;5001899;28;20230;-73
2022/11/20 03:31:08;;;;;;;34.90;18.65;;;;;;;2.65;100.00;99954.81;4997619;28;20646;-73
2022/11/20 03:33:36;;;;;;;28.38;18.05;;;;;;;2.61;100.00;99945.16;4993853;28;20313;-74
2022/11/20 03:36:04;;;;;;;30.40;19.40;;;;;;;2.68;100.00;99951.22;5004108;28;20285;-74
2022/11/20 03:38:32;;;;;;;29.33;17.20;;;;;;;2.75;100.00;99944.88;5009646;28;20199;-73
2022/11/20 03:41:03;;;;;;;32.67;18.83;;;;;;;2.80;100.00;99947.44;4995489;28;20199;-72
2022/11/20 03:43:29;;;;;;;28.00;17.75;;;;;;;2.78;100.00;99944.84;4994810;28;20226;-71
2022/11/20 03:45:56;;;;;;;26.70;18.52;;;;;;;2.78;100.00;99944.84;5005987;28;20199;-73
2022/11/20 03:48:22;;;;;;;27.25;17.00;;;;;;;2.73;100.00;99936.03;4999710;28;20283;-73
2022/11/20 03:50:51;;;;;;;28.08;18.20;;;;;;;2.69;100.00;99950.31;5010979;28;20232;-75
2022/11/20 03:53:18;;;;;;;29.38;18.38;;;;;;;2.67;100.00;99946.84;5004157;28;20223;-73
2022/11/20 03:55:44;;;;;;;31.13;18.27;;;;;;;2.68;100.00;99944.13;5006060;28;20198;-75
2022/11/20 03:58:11;;;;;;;37.38;19.50;;;;;;;2.70;100.00;99918.38;5010468;28;20205;-75
2022/11/20 04:00:37;;;;;;;30.25;17.85;;;;;;;2.64;100.00;99921.16;5006345;28;20222;-72
2022/11/20 04:03:04;;;;;;;30.00;18.83;;;;;;;2.75;100.00;99931.56;5012885;28;20218;-73
2022/11/20 04:05:31;;;;;;;26.08;18.80;;;;;;;2.70;100.00;99931.66;5003531;28;20199;-74
2022/11/20 04:07:59;;;;;;;28.52;17.73;;;;;;;2.74;100.00;99942.22;4996443;28;20725;-73
2022/11/20 04:10:26;;;;;;;32.97;18.30;;;;;;;2.71;100.00;99945.84;4996711;28;20282;-73
2022/11/20 04:12:53;;;;;;;30.38;18.25;;;;;;;2.72;100.00;99923.69;4991189;28;20211;-73
2022/11/20 04:15:19;;;;;;;30.52;18.77;;;;;;;2.65;100.00;99930.91;5001447;28;20214;-72
2022/11/20 04:17:46;;;;;;;31.02;18.83;;;;;;;2.66;100.00;99929.97;5018746;28;20214;-72
2022/11/20 04:20:12;;;;;;;27.10;18.08;;;;;;;2.74;100.00;99927.19;5006455;28;20277;-73
2022/11/20 04:22:39;;;;;;;26.08;17.00;;;;;;;2.71;100.00;99924.56;5004680;28;20290;-74
2022/11/20 04:25:08;;;;;;;30.23;17.40;;;;;;;2.69;100.00;99918.41;5004685;28;20203;-72
2022/11/20 04:27:34;;;;;;;29.63;18.15;;;;;;;2.70;100.00;99915.72;5005168;28;20239;-72
2022/11/20 04:30:02;;;;;;;28.83;18.10;;;;;;;2.70;100.00;99922.81;5001407;28;20199;-73
2022/11/20 04:32:28;;;;;;;29.15;17.67;;;;;;;2.67;100.00;99929.09;5010776;28;20317;-72
2022/11/20 04:34:55;;;;;;;34.92;18.27;;;;;;;2.51;100.00;99927.66;4997910;28;20207;-72
2022/11/20 04:37:21;;;;;;;29.55;19.25;;;;;;;2.59;100.00;99928.34;5005657;28;20278;-74
2022/11/20 04:39:48;;;;;;;31.70;18.83;;;;;;;2.52;100.00;99923.22;5002482;28;20314;-73
2022/11/20 04:42:31;;;;;;;28.23;17.35;;;;;;;2.61;100.00;99921.22;4999209;28;20203;-73
2022/11/20 04:44:58;;;;;;;28.40;18.50;;;;;;;2.68;100.00;99912.22;5000660;28;20223;-74
2022/11/20 04:47:25;;;;;;;30.45;19.40;;;;;;;2.70;100.00;99913.06;4994370;28;20231;-73
2022/11/20 04:49:51;;;;;;;31.40;18.35;;;;;;;2.75;100.00;99922.72;5004047;28;20282;-73
2022/11/20 04:52:18;;;;;;;28.63;17.23;;;;;;;2.76;100.00;99919.16;5006761;28;20234;-75
2022/11/20 04:54:44;;;;;;;35.00;19.90;;;;;;;2.72;100.00;99913.03;5005489;28;20234;-77
2022/11/20 04:57:11;;;;;;;31.63;18.33;;;;;;;2.73;100.00;99909.47;5007549;28;20204;-73
2022/11/20 04:59:39;;;;;;;35.55;20.65;;;;;;;2.75;100.00;99918.28;4998368;28;20219;-74
2022/11/20 05:02:05;;;;;;;32.78;19.80;;;;;;;2.81;100.00;99922.59;5005716;28;20206;-72
2022/11/20 05:04:32;;;;;;;29.90;19.88;;;;;;;2.81;100.00;99915.50;5047901;22;20229;-76
2022/11/20 05:06:58;;;;;;;32.88;20.65;;;;;;;2.76;100.00;99916.50;5032147;28;20659;-75
2022/11/20 05:09:25;;;;;;;34.97;20.63;;;;;;;2.82;100.00;99916.38;5037594;28;20197;-76
2022/11/20 05:11:51;;;;;;;33.03;19.27;;;;;;;2.84;100.00;99917.22;5040081;28;20580;-76
2022/11/20 05:14:18;;;;;;;33.53;20.55;;;;;;;2.75;100.00;99910.31;5054039;28;20213;-75
2022/11/20 05:16:46;;;;;;;33.95;18.33;;;;;;;2.60;100.00;99908.84;5048489;28;20572;-77
2022/11/20 05:19:12;;;;;;;32.28;18.83;;;;;;;2.55;100.00;99912.50;5033210;28;20227;-77
2022/11/20 05:21:39;;;;;;;32.30;20.30;;;;;;;2.52;100.00;99908.13;5042271;28;20200;-76
2022/11/20 05:24:06;;;;;;;35.60;19.55;;;;;;;2.54;100.00;99908.97;5046726;28;20300;-75
2022/11/20 05:26:33;;;;;;;33.00;20.00;;;;;;;2.59;100.00;99904.44;5037471;28;20201;-75
2022/11/20 05:29:00;;;;;;;39.55;21.23;;;;;;;2.46;100.00;99901.13;5045139;28;20735;-75
2022/11/20 05:31:27;;;;;;;35.60;20.50;;;;;;;2.59;100.00;99901.78;5050581;28;20201;-76
2022/11/20 05:33:56;;;;;;;37.88;20.90;;;;;;;2.54;100.00;99903.66;5048612;28;20229;-75
2022/11/20 05:36:24;;;;;;;34.50;20.17;;;;;;;2.48;100.00;99899.31;5041760;28;20208;-76
2022/11/20 05:38:50;;;;;;;38.90;21.35;;;;;;;2.50;100.00;99892.19;5041219;28;20204;-76
2022/11/20 05:41:19;;;;;;;35.67;20.60;;;;;;;2.53;100.00;99901.88;5042006;28;20243;-75
2022/11/20 05:43:48;;;;;;;42.22;21.30;;;;;;;2.34;100.00;99911.16;5043570;28;20247;-75
2022/11/20 05:46:17;;;;;;;34.10;19.92;;;;;;;2.41;100.00;99916.31;5041226;28;20206;-75
2022/11/20 05:48:44;;;;;;;38.97;22.50;;;;;;;2.44;100.00;99907.41;5047486;28;20213;-76
2022/11/20 05:51:16;;;;;;;37.15;20.88;;;;;;;2.48;100.00;99896.66;5043034;28;20197;-75
2022/11/20 05:53:42;;;;;;;43.80;21.17;;;;;;;2.55;100.00;99893.91;5035622;28;20686;-76
2022/11/20 05:56:12;;;;;;;39.13;21.50;;;;;;;2.62;100.00;99896.41;5037570;28;20289;-76
2022/11/20 05:58:39;;;;;;;42.40;23.15;;;;;;;2.46;100.00;99894.94;5036504;28;20198;-77
2022/11/20 06:01:07;;;;;;;38.90;20.17;;;;;;;2.39;100.00;99906.63;5037495;28;20380;-77
2022/11/20 06:03:34;;;;;;;37.13;20.23;;;;;;;2.49;100.00;99902.88;5036710;28;20236;-77
2022/11/20 06:06:01;;;;;;;33.03;19.20;;;;;;;2.60;100.00;99897.31;5036485;28;20232;-77
2022/11/20 06:08:29;;;;;;;33.03;19.90;;;;;;;2.70;100.00;99898.91;5035964;28;20209;-77
2022/11/20 06:10:56;;;;;;;34.22;19.45;;;;;;;2.83;100.00;99897.72;5035319;28;20198;-77
2022/11/20 06:13:23;;;;;;;32.47;20.60;;;;;;;2.87;100.00;99903.84;5054736;28;20221;-77
2022/11/20 06:15:50;;;;;;;29.42;18.42;;;;;;;2.89;100.00;99904.69;5036505;28;20297;-78
2022/11/20 06:18:17;;;;;;;31.83;18.73;;;;;;;2.84;100.00;99910.09;5036299;28;20213;-76
2022/11/20 06:20:44;;;;;;;30.95;19.15;;;;;;;2.84;100.00;99896.81;5036009;28;20221;-76
2022/11/20 06:23:10;;;;;;;36.17;18.50;;;;;;;2.87;100.00;99895.84;5036758;28;20564;-76
2022/11/20 06:25:39;;;;;;;26.27;17.48;;;;;;;2.92;100.00;99902.84;5036753;28;20206;-76
2022/11/20 06:28:07;;;;;;;30.42;18.65;;;;;;;2.94;100.00;99894.84;5031993;28;20198;-77
2022/11/20 06:30:34;;;;;;;28.20;18.55;;;;;;;2.91;100.00;99897.53;5045470;28;20574;-78
2022/11/20 06:33:00;;;;;;;33.67;19.42;;;;;;;2.92;100.00;99894.88;5033542;28;20241;-75
2022/11/20 06:35:27;;;;;;;30.55;18.55;;;;;;;2.90;100.00;99901.13;5044580;28;20201;-76
2022/11/20 06:37:53;;;;;;;44.55;18.70;;;;;;;2.92;100.00;99904.63;5027772;28;20202;-76
2022/11/20 06:40:20;;;;;;;33.92;18.77;;;;;;;2.93;100.00;99898.41;5043095;28;20225;-75
2022/11/20 06:42:48;;;;;;;35.13;19.77;;;;;;;2.93;100.00;99899.25;5028870;28;20240;-74
2022/11/20 06:45:14;;;;;;;37.30;20.17;;;;;;;2.92;100.00;99905.50;5035235;28;20573;-74
2022/11/20 06:47:41;;;;;;;30.38;18.65;;;;;;;2.86;100.00;99915.41;5038170;28;20577;-73
2022/11/20 06:50:09;;;;;;;29.92;19.20;;;;;;;2.87;100.00;99901.19;5044334;28;20208;-74
2022/11/20 06:52:36;;;;;;;34.08;19.88;;;;;;;2.84;100.00;99893.28;5042106;28;20206;-73
2022/11/20 06:55:02;;;;;;;30.23;18.45;;;;;;;2.91;100.00;99900.22;5038676;28;20224;-74
2022/11/20 06:57:29;;;;;;;33.47;19.73;;;;;;;2.91;100.00;99900.22;5039733;28;20212;-76
2022/11/20 06:59:57;;;;;;;32.45;19.13;;;;;;;2.96;100.00;99900.97;5055598;28;20221;-73
2022/11/20 07:02:23;;;;;;;32.55;20.10;;;;;;;2.91;100.00;99908.19;5049422;28;20274;-73
2022/11/20 07:04:50;;;;;;;35.50;19.13;;;;;;;3.03;100.00;99907.03;5046707;28;20229;-73
2022/11/20 07:07:16;;;;;;;32.47;18.65;;;;;;;3.01;100.00;99915.06;5029171;28;20208;-75
2022/11/20 07:09:43;;;;;;;37.08;18.60;;;;;;;2.85;100.00;99917.19;5033999;28;20277;-74
2022/11/20 07:12:10;;;;;;;32.33;18.95;;;;;;;2.75;100.00;99915.63;5039364;28;20239;-76
2022/11/20 07:14:36;;;;;;;37.22;20.98;;;;;;;2.67;100.00;99915.78;5055862;28;20276;-76
2022/11/20 07:17:04;;;;;;;33.35;18.45;;;;;;;2.68;100.00;99921.97;5034006;28;20230;-74
2022/11/20 07:19:31;;;;;;;34.95;20.58;;;;;;;2.53;100.00;99916.97;5041500;28;20205;-74
2022/11/20 07:21:57;;;;;;;33.88;19.42;;;;;;;2.59;100.00;99923.03;5039622;28;20284;-75
2022/11/20 07:24:24;;;;;;;37.35;20.35;;;;;;;2.58;100.00;99915.97;5043483;28;20227;-74
2022/11/20 07:26:50;;;;;;;40.83;21.67;;;;;;;2.41;100.00;99921.63;5038709;28;20254;-75
2022/11/20 07:29:17;;;;;;;38.72;21.92;;;;;;;2.42;100.00;99914.53;5035462;28;20647;-75
2022/11/20 07:31:44;;;;;;;35.42;20.92;;;;;;;2.52;100.00;99916.09;5034028;28;20201;-75
2022/11/20 07:34:13;;;;;;;39.00;23.02;;;;;;;2.50;100.00;99915.25;5033089;28;20220;-76
2022/11/20 07:36:40;;;;;;;38.63;20.48;;;;;;;2.47;100.00;99908.22;5031665;28;20807;-76
2022/11/20 07:39:07;;;;;;;37.60;20.08;;;;;;;2.51;100.00;99903.72;5035899;28;20233;-76
2022/11/20 07:41:33;;;;;;;38.97;22.58;;;;;;;2.56;100.00;99903.63;5038182;28;20303;-78
2022/11/20 07:44:00;;;;;;;37.42;21.65;;;;;;;2.71;100.00;99901.53;5049583;28;20259;-77
2022/11/20 07:46:27;;;;;;;36.03;20.92;;;;;;;2.56;100.00;99896.53;5061090;28;20209;-74
2022/11/20 07:48:53;;;;;;;42.55;22.40;;;;;;;2.51;100.00;99903.72;5049787;28;20285;-76
2022/11/20 07:51:21;;;;;;;40.35;22.15;;;;;;;2.46;100.00;99910.91;5034325;28;20217;-75
2022/11/20 07:53:48;;;;;;;38.53;21.80;;;;;;;2.66;100.00;99913.16;5036796;28;20283;-74
2022/11/20 07:56:14;;;;;;;37.42;20.17;;;;;;;2.49;100.00;99916.19;5038719;28;20234;-75
2022/11/20 07:58:41;;;;;;;38.92;22.05;;;;;;;2.60;100.00;99914.19;5058945;28;20197;-75
2022/11/20 08:01:08;;;;;;;37.53;22.05;;;;;;;2.59;100.00;99922.19;5041112;28;20240;-73
2022/11/20 08:03:37;;;;;;;38.38;20.63;;;;;;;2.64;100.00;99925.59;5038699;28;20214;-74
2022/11/20 08:06:06;;;;;;;33.70;19.20;;;;;;;2.76;100.00;99930.69;5034230;28;20355;-76
2022/11/20 08:08:34;;;;;;;38.20;21.42;;;;;;;2.84;100.00;99928.72;5040857;28;20618;-75
2022/11/20 08:16:25;;;;;;;34.33;18.58;;;;;;;3.07;100.00;99935.31;5048304;28;20213;-76
2022/11/20 08:18:51;;;;;;;37.42;20.65;;;;;;;3.20;100.00;99934.16;5039150;28;20212;-77
2022/11/20 08:21:18;;;;;;;33.72;18.80;;;;;;;3.03;100.00;99934.53;5038609;28;20228;-75
2022/11/20 08:23:46;;;;;;;36.28;23.30;;;;;;;3.01;100.00;99947.00;5052910;28;20729;-74
2022/11/20 08:26:12;;;;;;;34.53;19.65;;;;;;;3.21;100.00;99940.34;5053838;28;20212;-75
2022/11/20 08:28:39;;;;;;;33.58;20.42;;;;;;;3.25;100.00;99939.38;5060637;28;20197;-75
2022/11/20 08:31:05;;;;;;;35.20;21.10;;;;;;;2.89;100.00;99942.81;5047365;28;20212;-75
2022/11/20 08:33:32;;;;;;;36.40;18.58;;;;;;;3.05;100.00;99937.16;5051764;28;20308;-75
2022/11/20 08:36:00;;;;;;;35.75;19.52;;;;;;;3.22;100.00;99950.97;5041499;28;20655;-74
2022/11/20 08:38:27;;;;;;;118.55;76.10;;;;;;;3.33;100.00;99953.38;5047732;28;20648;-78
2022/11/20 08:43:42;;;;;;;46.92;24.60;;;;;;;3.43;100.00;99952.25;5038540;28;20375;-77
2022/11/20 08:46:09;;;;;;;37.42;21.42;;;;;;;3.44;100.00;99955.81;5037067;28;20197;-74
2022/11/20 08:48:35;;;;;;;42.08;20.10;;;;;;;3.47;100.00;99953.94;5033700;28;20224;-77
2022/11/20 08:51:03;;;;;;;32.45;19.42;;;;;;;3.37;100.00;99957.72;5040252;28;20205;-77
2022/11/20 08:53:30;;;;;;;39.15;21.98;;;;;;;3.49;100.00;99964.56;5032760;28;20244;-76
2022/11/20 08:55:58;;;;;;;37.47;21.80;;;;;;;3.53;100.00;99959.13;5041411;28;20224;-75
2022/11/20 08:58:26;;;;;;;35.95;20.38;;;;;;;3.72;100.00;99970.19;5039977;28;20202;-76
2022/11/20 09:00:52;;;;;;;36.95;21.15;;;;;;;3.71;100.00;99967.59;5039525;28;20238;-76
2022/11/20 09:03:19;;;;;;;37.42;22.60;;;;;;;3.79;100.00;99968.25;5037387;28;20264;-73
2022/11/20 09:05:46;;;;;;;39.40;21.35;;;;;;;3.88;100.00;99957.38;5044939;28;20228;-74
2022/11/20 09:08:12;;;;;;;42.40;22.80;;;;;;;4.09;100.00;99955.97;5052331;28;20284;-74
2022/11/20 09:10:39;;;;;;;40.00;22.55;;;;;;;4.36;100.00;99965.03;5036357;28;20285;-74
2022/11/20 09:13:07;;;;;;;44.70;23.98;;;;;;;4.72;100.00;99964.03;5037368;28;20284;-78
2022/11/20 09:15:34;;;;;;;40.75;21.73;;;;;;;5.20;100.00;99952.81;5037993;28;20213;-75
2022/11/20 09:18:04;;;;;;;36.28;21.20;;;;;;;5.05;100.00;99966.66;5041572;28;20284;-77
2022/11/20 09:20:31;;;;;;;43.88;21.35;;;;;;;4.89;100.00;99963.56;5039984;28;20287;-76
2022/11/20 09:22:58;;;;;;;34.00;21.13;;;;;;;4.76;100.00;99969.25;5048673;28;20228;-75
2022/11/20 09:25:25;;;;;;;36.90;21.52;;;;;;;4.51;100.00;99965.53;5047088;28;20718;-76
2022/11/20 09:27:56;;;;;;;34.92;21.77;;;;;;;4.70;100.00;99961.41;5039767;28;20195;-76
2022/11/20 09:30:24;;;;;;;41.85;21.98;;;;;;;4.79;100.00;99957.59;5036668;28;20200;-75
2022/11/20 09:32:51;;;;;;;33.67;21.10;;;;;;;4.98;100.00;99960.63;5039430;28;20225;-76
2022/11/20 09:35:18;;;;;;;31.88;19.40;;;;;;;4.95;100.00;99963.38;5039114;28;20286;-77
2022/11/20 09:37:44;;;;;;;29.75;19.45;;;;;;;4.81;100.00;99969.97;5040063;28;20199;-76
2022/11/20 09:40:19;;;;;;;35.60;20.50;;;;;;;4.92;100.00;99968.81;5048223;28;20189;-76
2022/11/20 09:42:50;;;;;;;31.85;20.83;;;;;;;5.26;100.00;99968.66;5039912;28;20199;-75
2022/11/20 09:45:27;;;;;;;30.00;19.48;;;;;;;5.48;100.00;99976.91;5040972;28;20296;-76
2022/11/20 09:48:12;;;;;;;29.30;18.33;;;;;;;5.22;100.00;99964.34;5040073;28;20231;-75
2022/11/20 09:50:47;;;;;;;25.40;16.55;;;;;;;4.99;100.00;99952.56;5047990;28;20197;-76
2022/11/20 09:53:19;;;;;;;24.40;16.30;;;;;;;5.26;100.00;99947.31;5045425;28;20714;-75
2022/11/20 09:55:46;;;;;;;25.77;16.75;;;;;;;5.28;100.00;99955.28;5042777;28;20214;-77
2022/11/20 09:58:25;;;;;;;29.77;17.80;;;;;;;5.16;100.00;99944.06;5053526;28;20267;-76
2022/11/20 10:00:56;;;;;;;28.05;17.25;;;;;;;5.01;100.00;99947.19;5051953;28;20280;-76
2022/11/20 10:03:34;;;;;;;28.67;19.33;;;;;;;4.98;100.00;99948.16;5048528;28;20234;-77
2022/11/20 10:06:04;;;;;;;28.55;19.05;;;;;;;4.92;100.00;99947.47;5054944;28;20222;-76
2022/11/20 10:08:40;;;;;;;30.23;18.13;;;;;;;4.86;100.00;99945.88;5045015;28;20281;-75
2022/11/20 10:11:15;;;;;;;29.55;17.88;;;;;;;4.91;100.00;99951.06;5049543;28;20656;-76
2022/11/20 10:13:53;;;;;;;29.42;17.73;;;;;;;4.66;100.00;99950.88;5049332;28;20219;-76
2022/11/20 10:16:31;;;;;;;29.75;18.90;;;;;;;4.89;100.00;99943.09;5044439;28;20280;-77
2022/11/20 10:19:14;;;;;;;31.08;19.73;;;;;;;4.80;100.00;99932.69;5045777;28;20199;-75
2022/11/20 10:21:58;;;;;;;32.90;21.17;;;;;;;4.76;100.00;99939.03;5040332;28;20280;-76
2022/11/20 10:24:49;;;;;;;31.25;19.33;;;;;;;4.68;100.00;99933.94;5050112;28;20250;-77
2022/11/20 10:27:36;;;;;;;39.28;21.55;;;;;;;4.54;100.00;99930.75;5043548;28;20194;-77
2022/11/20 10:30:08;;;;;;;34.17;21.13;;;;;;;4.56;100.00;99940.47;5042531;28;20331;-77
2022/11/20 10:32:41;;;;;;;35.17;21.42;;;;;;;4.33;100.00;99941.09;5043699;28;20194;-78
2022/11/20 10:35:20;;;;;;;42.83;23.08;;;;;;;4.43;100.00;99943.50;5041492;28;20253;-77
2022/11/20 10:37:50;;;;;;;43.97;24.02;;;;;;;4.33;100.00;99943.75;5045117;28;20691;-77
2022/11/20 10:40:24;;;;;;;39.85;22.92;;;;;;;4.46;100.00;99930.97;5063538;28;20205;-76
2022/11/20 10:42:55;;;;;;;37.38;22.45;;;;;;;4.53;100.00;99931.69;5073083;28;20222;-80
2022/11/20 10:45:35;;;;;;;49.00;26.35;;;;;;;4.70;100.00;99925.84;5059521;28;20209;-77
2022/11/20 10:48:13;;;;;;;46.05;26.75;;;;;;;4.89;100.00;99921.75;5033463;28;20203;-79
2022/11/20 10:50:47;;;;;;;40.33;24.45;;;;;;;4.90;100.00;99923.47;5049862;28;20177;-79
2022/11/20 10:53:38;;;;;;;40.20;23.85;;;;;;;4.83;100.00;99905.91;5051105;28;20351;-74
2022/11/20 10:56:12;;;;;;;232.05;147.90;;;;;;;4.98;100.00;99909.94;5061262;28;20221;-73
2022/11/20 10:58:45;;;;;;;64.13;40.83;;;;;;;5.01;100.00;99910.69;5038859;28;20197;-77
2022/11/20 11:01:16;;;;;;;37.60;23.13;;;;;;;5.00;100.00;99911.63;5045986;28;20301;-77
2022/11/20 11:03:44;;;;;;;34.75;21.02;;;;;;;4.96;100.00;99909.97;5045084;28;20241;-82
2022/11/20 11:06:21;;;;;;;33.85;20.58;;;;;;;5.07;100.00;99906.09;5057406;28;20201;-76
2022/11/20 11:08:52;;;;;;;36.83;23.23;;;;;;;4.99;100.00;99909.00;5049373;28;20206;-78
2022/11/20 11:11:23;;;;;;;42.13;22.73;;;;;;;5.00;100.00;99908.09;5045694;28;20316;-76
2022/11/20 11:13:50;;;;;;;35.08;20.90;;;;;;;4.84;100.00;99907.66;5042811;28;20227;-77
2022/11/20 11:16:24;;;;;;;37.28;22.23;;;;;;;4.82;100.00;99914.84;5042594;28;20204;-77
2022/11/20 11:18:52;;;;;;;42.38;25.63;;;;;;;4.94;100.00;99909.13;5040029;28;20512;-77
2022/11/20 11:21:25;;;;;;;37.95;24.05;;;;;;;4.91;100.00;99900.38;5043772;28;20249;-77
2022/11/20 11:24:00;;;;;;;38.85;23.77;;;;;;;4.92;100.00;99900.28;5056382;28;20228;-75
2022/11/20 11:26:27;;;;;;;35.70;22.35;;;;;;;4.99;100.00;99896.50;5052713;28;20217;-77
2022/11/20 11:28:55;;;;;;;40.38;21.50;;;;;;;4.95;100.00;99891.31;5043235;28;20204;-75
2022/11/20 11:31:24;;;;;;;35.28;21.70;;;;;;;5.08;100.00;99890.03;5040143;28;20233;-76
2022/11/20 11:33:52;;;;;;;35.90;20.75;;;;;;;5.26;100.00;99885.03;5039085;28;20245;-76